Marshfield, Missouri
Current Conditions -  °F | °C
As of 4:52 AM on Thursday 27 Nov 2014 (Local Time) from KSGF Reporting Station
Overcast Overcast  
Wind Chill: -7°   Ceiling: 1500
Heat Index: -1°   Visibility: 8mi
Dew Point: -5°   Wind: 16mph
Humidity: 75%   Direction: 330°NNW
Pressure: 30.44"   Gusts: NA
Location:  37.34°N, 92.91°W
Report Text: KSGF 271052Z 33014KT 8SM OVC015 M01/M05 A3044 RMK AO2 SLP315 T10111050
Loading
Personal Weather Stations






























Interactive Weather Map New forecast layout! Learn more

10-Day Weather Forecast

Advertisements
Track Severe Weather on mobile